createdAt,value
2023-01-01T00:00:51.389Z,106.73
2023-01-01T00:03:20.065Z,140.80
2023-01-01T00:05:48.685Z,161.50
2023-01-01T00:08:17.299Z,223.03
2023-01-01T00:10:46.004Z,338.07
2023-01-01T00:13:15.346Z,78.30
2023-01-01T00:15:45.322Z,65.17
2023-01-01T00:18:14.366Z,85.17
2023-01-01T00:20:43.043Z,70.67
2023-01-01T00:23:12.826Z,76.10
2023-01-01T00:25:41.806Z,57.80
2023-01-01T00:28:10.613Z,38.30
2023-01-01T00:30:41.966Z,31.33
2023-01-01T00:33:11.598Z,36.63
2023-01-01T00:35:40.251Z,38.20
2023-01-01T00:38:08.927Z,52.80
2023-01-01T00:40:37.463Z,56.03
2023-01-01T00:43:06.090Z,53.30
2023-01-01T00:45:34.761Z,46.23
2023-01-01T00:48:03.393Z,41.83
2023-01-01T00:50:33.089Z,75.60
2023-01-01T00:53:01.643Z,59.77
2023-01-01T00:55:29.948Z,58.53
2023-01-01T00:57:58.558Z,89.30
2023-01-01T01:00:27.124Z,75.67
2023-01-01T01:02:55.804Z,57.83
2023-01-01T01:05:24.482Z,74.53
2023-01-01T01:07:54.600Z,75.90
2023-01-01T01:10:23.184Z,81.03
2023-01-01T01:12:51.393Z,73.67
2023-01-01T01:15:20.898Z,73.33
2023-01-01T01:17:49.732Z,63.47
2023-01-01T01:20:18.493Z,102.20
2023-01-01T01:22:47.038Z,92.00
2023-01-01T01:25:17.036Z,89.67
2023-01-01T01:27:45.583Z,116.17
2023-01-01T01:30:14.591Z,100.33
2023-01-01T01:32:43.195Z,99.90
2023-01-01T01:35:12.491Z,108.63
2023-01-01T01:37:41.066Z,108.73
2023-01-01T01:40:11.075Z,109.90
2023-01-01T01:42:40.681Z,105.93
2023-01-01T01:45:11.318Z,142.47
2023-01-01T01:47:49.772Z,126.90
2023-01-01T01:50:28.008Z,154.83
2023-01-01T01:53:07.654Z,167.07
2023-01-01T01:55:41.022Z,180.20
2023-01-01T01:58:14.400Z,187.80
2023-01-01T02:00:42.809Z,199.00
2023-01-01T02:03:15.485Z,179.27
2023-01-01T02:05:45.269Z,182.73
2023-01-01T02:08:15.816Z,176.00
2023-01-01T02:10:44.550Z,179.07
2023-01-01T02:13:14.865Z,147.77
2023-01-01T02:15:52.935Z,119.70
2023-01-01T02:18:25.886Z,158.60
2023-01-01T02:21:01.177Z,176.40
2023-01-01T02:23:57.723Z,169.63
2023-01-01T02:26:43.181Z,193.53
2023-01-01T02:29:29.773Z,179.73
2023-01-01T02:32:06.840Z,213.97
2023-01-01T02:34:41.343Z,303.63
2023-01-01T02:37:13.267Z,297.70
2023-01-01T02:39:47.429Z,308.17
2023-01-01T02:42:17.412Z,339.50
2023-01-01T02:44:52.296Z,325.67
2023-01-01T02:47:22.337Z,340.43
2023-01-01T02:50:03.890Z,333.27
2023-01-01T02:52:50.518Z,304.07
2023-01-01T02:55:44.044Z,300.23
2023-01-01T02:58:36.206Z,315.70
2023-01-01T03:01:14.310Z,288.87
2023-01-01T03:03:57.098Z,296.50
2023-01-01T03:06:39.920Z,347.43
2023-01-01T03:09:23.271Z,295.77
2023-01-01T03:12:18.955Z,306.67
2023-01-01T03:14:57.629Z,317.57
2023-01-01T03:17:36.399Z,265.90
2023-01-01T03:20:14.638Z,291.97
2023-01-01T03:25:15.470Z,296.00
2023-01-01T03:27:49.495Z,283.47
2023-01-01T03:30:22.300Z,274.93
2023-01-01T03:33:03.757Z,240.43
2023-01-01T03:35:39.873Z,233.23
2023-01-01T03:38:15.735Z,246.13
2023-01-01T03:40:48.226Z,258.63
2023-01-01T03:43:26.361Z,219.87
2023-01-01T03:45:57.764Z,225.40
2023-01-01T03:48:27.801Z,223.20
2023-01-01T03:51:09.279Z,234.43
2023-01-01T03:53:42.407Z,232.20
2023-01-01T03:56:22.391Z,227.87
2023-01-01T03:59:01.510Z,232.43
2023-01-01T04:01:37.186Z,228.83
2023-01-01T04:04:08.965Z,208.77
2023-01-01T04:06:37.547Z,230.13
2023-01-01T04:09:10.880Z,208.77
2023-01-01T04:12:04.329Z,192.97
2023-01-01T04:14:35.535Z,197.80
2023-01-01T04:17:05.820Z,184.13
2023-01-01T04:19:36.096Z,179.50
2023-01-01T04:22:05.371Z,180.57
2023-01-01T04:24:33.973Z,162.17
2023-01-01T04:27:02.578Z,159.07
2023-01-01T04:29:30.891Z,155.23
2023-01-01T04:31:59.511Z,160.47
2023-01-01T04:34:28.157Z,164.80
2023-01-01T04:36:57.734Z,155.33
2023-01-01T04:39:25.982Z,162.53
2023-01-01T04:41:54.634Z,137.70
2023-01-01T04:44:23.208Z,144.03
2023-01-01T04:46:56.939Z,155.80
2023-01-01T04:49:28.656Z,146.17
2023-01-01T04:51:58.237Z,146.60
2023-01-01T04:54:26.887Z,142.03
2023-01-01T04:56:55.554Z,136.23
2023-01-01T04:59:24.135Z,128.07
2023-01-01T05:01:52.857Z,118.93
2023-01-01T05:04:21.527Z,119.40
2023-01-01T05:06:50.138Z,116.73
2023-01-01T05:09:20.193Z,117.77
2023-01-01T05:11:48.825Z,133.77
2023-01-01T05:14:17.391Z,123.00
2023-01-01T05:16:46.006Z,135.53
2023-01-01T05:19:14.621Z,138.20
2023-01-01T05:21:42.962Z,153.53
2023-01-01T05:24:12.342Z,149.57
2023-01-01T05:26:44.695Z,152.33
2023-01-01T05:29:17.115Z,140.73
2023-01-01T05:31:47.107Z,149.73
2023-01-01T05:34:15.884Z,138.63
2023-01-01T05:36:44.550Z,147.23
2023-01-01T05:39:14.151Z,140.50
2023-01-01T05:41:44.336Z,150.00
2023-01-01T05:44:13.077Z,149.97
2023-01-01T05:46:41.658Z,162.97
2023-01-01T05:49:12.910Z,150.83
2023-01-01T05:56:38.050Z,157.07
2023-01-01T05:59:07.729Z,167.67
2023-01-01T06:01:41.794Z,153.20
2023-01-01T06:04:15.583Z,166.63
2023-01-01T06:06:44.272Z,162.90
2023-01-01T06:09:12.751Z,170.50
2023-01-01T06:11:41.258Z,160.10
2023-01-01T06:14:10.908Z,151.70
2023-01-01T06:16:39.672Z,147.80
2023-01-01T06:19:08.323Z,140.50
2023-01-01T06:21:37.096Z,150.60
2023-01-01T06:24:06.470Z,140.00
2023-01-01T06:26:35.364Z,146.47
2023-01-01T06:29:04.353Z,128.43
2023-01-01T06:31:40.167Z,125.03
2023-01-01T06:34:09.340Z,120.50
2023-01-01T06:36:38.071Z,124.53
2023-01-01T06:39:07.177Z,134.13
2023-01-01T06:41:35.800Z,122.50
2023-01-01T06:44:05.640Z,124.10
2023-01-01T06:46:37.100Z,115.80
2023-01-01T06:49:07.903Z,117.73
2023-01-01T06:51:40.679Z,123.40
2023-01-01T06:54:09.930Z,122.57
2023-01-01T06:56:38.997Z,123.27
2023-01-01T06:59:08.405Z,126.93
2023-01-01T07:01:44.401Z,122.70
2023-01-01T07:04:16.764Z,127.30
2023-01-01T07:06:45.345Z,112.77
2023-01-01T07:09:13.965Z,115.57
2023-01-01T07:11:42.567Z,113.53
2023-01-01T07:14:11.200Z,122.80
2023-01-01T07:16:40.888Z,112.17
2023-01-01T07:19:09.411Z,115.30
2023-01-01T07:21:43.406Z,120.97
2023-01-01T07:24:14.732Z,133.07
2023-01-01T07:26:43.461Z,139.40
2023-01-01T07:29:13.343Z,150.60
2023-01-01T07:31:44.864Z,143.07
2023-01-01T07:34:17.080Z,139.93
2023-01-01T07:36:45.842Z,136.70
2023-01-01T07:39:14.493Z,159.33
2023-01-01T07:41:42.839Z,154.70
2023-01-01T07:44:12.091Z,156.17
2023-01-01T07:46:41.827Z,159.30
2023-01-01T07:49:10.497Z,189.53
2023-01-01T07:51:39.130Z,174.57
2023-01-01T07:54:08.732Z,208.03
2023-01-01T07:56:37.531Z,195.67
2023-01-01T07:59:06.281Z,214.13
2023-01-01T08:01:37.963Z,209.50
2023-01-01T08:04:07.945Z,208.93
2023-01-01T08:06:36.747Z,222.60
2023-01-01T08:09:05.444Z,238.57
2023-01-01T08:11:34.066Z,238.40
2023-01-01T08:14:02.844Z,253.83
2023-01-01T08:16:31.538Z,238.87
2023-01-01T08:19:00.216Z,231.20
2023-01-01T08:21:29.953Z,222.83
2023-01-01T08:23:58.415Z,200.90
2023-01-01T08:26:32.427Z,195.67
2023-01-01T08:29:03.700Z,178.67
2023-01-01T08:31:32.469Z,172.60
2023-01-01T08:34:01.216Z,170.20
2023-01-01T08:36:30.878Z,169.03
2023-01-01T08:38:59.242Z,165.47
2023-01-01T08:41:27.914Z,165.33
2023-01-01T08:43:56.183Z,154.23
2023-01-01T08:46:24.860Z,168.33
2023-01-01T08:48:53.335Z,161.33
2023-01-01T08:51:21.951Z,162.40
2023-01-01T08:53:51.829Z,159.73
2023-01-01T08:56:20.803Z,182.47
2023-01-01T08:58:49.719Z,148.13
2023-01-01T09:01:21.541Z,128.77
2023-01-01T09:03:50.489Z,113.47
2023-01-01T09:06:19.152Z,107.60
2023-01-01T09:08:47.950Z,100.57
2023-01-01T09:11:25.570Z,88.50
2023-01-01T09:13:55.191Z,92.07
2023-01-01T09:16:24.598Z,88.47
2023-01-01T09:18:53.315Z,80.10
2023-01-01T09:21:21.871Z,82.37
2023-01-01T09:23:50.537Z,85.40
2023-01-01T09:26:20.140Z,83.73
2023-01-01T09:28:48.707Z,71.63
2023-01-01T09:31:17.338Z,72.90
2023-01-01T09:33:45.970Z,69.67
2023-01-01T09:36:27.891Z,71.60
2023-01-01T09:38:57.987Z,70.63
2023-01-01T09:41:42.850Z,68.40
2023-01-01T09:44:30.816Z,68.83
2023-01-01T09:47:03.644Z,61.03
2023-01-01T09:49:38.043Z,62.00
2023-01-01T09:52:07.208Z,59.40
2023-01-01T09:54:41.735Z,59.17
2023-01-01T09:57:19.789Z,59.30
2023-01-01T09:59:50.804Z,65.10
2023-01-01T10:02:49.790Z,63.78
2023-01-01T10:05:35.488Z,64.07
2023-01-01T10:08:22.814Z,57.58
2023-01-01T10:11:13.281Z,58.75
2023-01-01T10:13:45.240Z,56.92
2023-01-01T10:16:24.922Z,54.03
2023-01-01T10:18:58.536Z,49.78
2023-01-01T10:21:33.401Z,49.03
2023-01-01T10:24:15.682Z,50.40
2023-01-01T10:26:44.607Z,47.00
2023-01-01T10:29:23.118Z,48.78
2023-01-01T10:31:52.166Z,52.53
2023-01-01T10:34:26.517Z,53.33
2023-01-01T10:36:58.795Z,45.55
2023-01-01T10:39:28.506Z,46.17
2023-01-01T10:41:59.559Z,46.58
2023-01-01T10:44:34.264Z,50.25
2023-01-01T10:47:26.380Z,47.38
2023-01-01T10:50:00.332Z,44.47
2023-01-01T10:52:35.457Z,41.63
2023-01-01T10:55:04.577Z,41.67
2023-01-01T10:57:37.976Z,41.75
2023-01-01T11:00:25.231Z,44.53
2023-01-01T11:03:18.665Z,41.15
2023-01-01T11:06:11.980Z,41.83
2023-01-01T11:08:48.222Z,41.92
2023-01-01T11:11:26.578Z,36.30
2023-01-01T11:13:58.454Z,38.60
2023-01-01T11:16:30.219Z,34.83
2023-01-01T11:19:06.585Z,35.83
2023-01-01T11:21:36.571Z,32.67
2023-01-01T11:24:23.983Z,33.33
2023-01-01T11:26:55.155Z,32.53
2023-01-01T11:29:30.584Z,30.38
2023-01-01T11:32:01.467Z,26.83
2023-01-01T11:34:33.756Z,28.08
2023-01-01T11:37:17.899Z,27.00
2023-01-01T11:39:52.308Z,28.52
2023-01-01T11:42:24.795Z,24.95
2023-01-01T11:44:57.173Z,26.73
2023-01-01T11:47:32.302Z,22.95
2023-01-01T11:50:19.278Z,26.23
2023-01-01T11:52:50.407Z,23.05
2023-01-01T11:55:28.130Z,17.63
2023-01-01T11:58:07.231Z,16.90
2023-01-01T12:00:38.182Z,18.33
2023-01-01T12:03:26.830Z,16.58
2023-01-01T12:06:08.035Z,14.57
2023-01-01T12:08:40.202Z,16.10
2023-01-01T12:11:20.400Z,15.45
2023-01-01T12:13:56.922Z,14.98
2023-01-01T12:16:46.382Z,14.55
2023-01-01T12:19:24.903Z,13.68
2023-01-01T12:21:58.387Z,13.40
2023-01-01T12:24:33.749Z,16.10
2023-01-01T12:27:16.942Z,11.60
2023-01-01T12:30:05.919Z,12.73
2023-01-01T12:33:09.593Z,14.02
2023-01-01T12:35:52.157Z,13.60
2023-01-01T12:38:46.587Z,12.13
2023-01-01T12:41:27.825Z,10.98
2023-01-01T12:44:06.993Z,11.65
2023-01-01T12:46:50.346Z,8.00
2023-01-01T12:49:48.511Z,11.10
2023-01-01T12:52:40.838Z,9.20
2023-01-01T12:55:46.499Z,9.15
2023-01-01T12:58:23.746Z,10.20
2023-01-01T13:00:59.892Z,10.40
2023-01-01T13:03:36.025Z,11.63
2023-01-01T13:06:07.519Z,9.73
2023-01-01T13:08:39.032Z,9.38
2023-01-01T13:11:09.496Z,10.68
2023-01-01T13:13:37.877Z,11.38
2023-01-01T13:16:07.777Z,10.65
2023-01-01T13:18:37.568Z,8.10
2023-01-01T13:21:21.335Z,11.55
2023-01-01T13:23:54.765Z,8.05
2023-01-01T13:26:42.745Z,9.18
2023-01-01T13:29:34.140Z,9.23
2023-01-01T13:32:08.959Z,10.25
2023-01-01T13:35:04.170Z,8.38
2023-01-01T13:37:47.397Z,9.15
2023-01-01T13:40:53.202Z,10.73
2023-01-01T13:43:32.125Z,12.50
2023-01-01T13:46:14.830Z,10.48
2023-01-01T13:49:26.404Z,14.90
2023-01-01T13:52:33.831Z,19.02
2023-01-01T13:55:38.935Z,20.80
2023-01-01T13:58:48.605Z,20.23
2023-01-01T14:01:45.574Z,23.52
2023-01-01T14:04:31.890Z,28.05
2023-01-01T14:07:33.010Z,21.58
2023-01-01T14:10:25.005Z,21.58
2023-01-01T14:12:55.257Z,22.02
2023-01-01T14:15:31.363Z,22.80
2023-01-01T14:18:02.815Z,20.52
2023-01-01T14:20:38.512Z,20.45
2023-01-01T14:23:11.685Z,23.92
2023-01-01T14:25:44.405Z,18.75
2023-01-01T14:28:20.056Z,18.77
2023-01-01T14:30:50.644Z,18.10
2023-01-01T14:33:27.863Z,18.83
2023-01-01T14:35:59.131Z,15.07
2023-01-01T14:38:29.193Z,18.05
2023-01-01T14:41:17.054Z,18.98
2023-01-01T14:43:48.938Z,19.77
2023-01-01T14:46:21.311Z,19.70
2023-01-01T14:48:54.024Z,20.20
2023-01-01T14:51:26.584Z,22.40
2023-01-01T14:53:59.716Z,19.17
2023-01-01T14:56:31.727Z,21.08
2023-01-01T14:59:09.203Z,21.52
2023-01-01T15:01:39.887Z,23.95
2023-01-01T15:04:26.632Z,21.73
2023-01-01T15:06:56.746Z,23.40
2023-01-01T15:09:26.164Z,27.10
2023-01-01T15:11:55.447Z,23.77
2023-01-01T15:14:38.148Z,29.90
2023-01-01T15:17:10.563Z,24.30
2023-01-01T15:19:42.169Z,25.30
2023-01-01T15:22:12.998Z,32.13
2023-01-01T15:24:41.656Z,25.90
2023-01-01T15:27:25.527Z,22.95
2023-01-01T15:29:56.560Z,23.58
2023-01-01T15:32:31.139Z,27.27
2023-01-01T15:35:01.890Z,24.25
2023-01-01T15:37:35.266Z,24.20
2023-01-01T15:40:34.724Z,27.15
2023-01-01T15:43:22.035Z,33.80
2023-01-01T15:46:00.142Z,26.15
2023-01-01T15:48:37.483Z,28.13
2023-01-01T15:51:16.380Z,24.73
2023-01-01T15:53:57.668Z,29.23
2023-01-01T15:56:29.744Z,33.30
2023-01-01T15:59:08.697Z,30.87
2023-01-01T16:01:40.550Z,29.47
2023-01-01T16:04:20.636Z,29.00
2023-01-01T16:06:55.429Z,36.13
2023-01-01T16:09:24.202Z,31.40
2023-01-01T16:11:54.355Z,31.83
2023-01-01T16:14:23.068Z,33.43
2023-01-01T16:16:57.370Z,31.73
2023-01-01T16:19:27.990Z,33.27
2023-01-01T16:21:56.765Z,28.93
2023-01-01T16:24:25.357Z,27.50
2023-01-01T16:26:54.335Z,27.60
2023-01-01T16:29:22.610Z,28.90
2023-01-01T16:31:52.840Z,30.23
2023-01-01T16:34:21.524Z,31.00
2023-01-01T16:36:51.659Z,30.03
2023-01-01T16:39:20.187Z,27.83
2023-01-01T16:41:48.734Z,26.97
2023-01-01T16:44:17.673Z,27.93
2023-01-01T16:46:46.840Z,28.77
2023-01-01T16:49:15.481Z,24.20
2023-01-01T16:51:45.331Z,25.90
2023-01-01T16:54:15.821Z,25.70
2023-01-01T16:56:44.471Z,24.20
2023-01-01T16:59:15.213Z,21.60
2023-01-01T17:01:44.823Z,22.70
2023-01-01T17:04:14.106Z,22.43
2023-01-01T17:06:42.753Z,21.27
2023-01-01T17:09:11.062Z,23.47
2023-01-01T17:11:41.411Z,23.90
2023-01-01T17:14:12.672Z,21.70
2023-01-01T17:16:41.353Z,22.27
2023-01-01T17:19:15.093Z,22.93
2023-01-01T17:21:45.715Z,24.67
2023-01-01T17:24:14.286Z,21.23
2023-01-01T17:26:44.007Z,17.60
2023-01-01T17:29:12.884Z,22.27
2023-01-01T17:31:41.512Z,19.03
2023-01-01T17:34:14.586Z,21.03
2023-01-01T17:36:44.619Z,18.77
2023-01-01T17:39:14.832Z,18.47
2023-01-01T17:41:46.125Z,17.93
2023-01-01T17:44:14.785Z,15.73
2023-01-01T17:46:44.479Z,19.23
2023-01-01T17:49:13.343Z,18.73
2023-01-01T17:51:42.305Z,20.50
2023-01-01T17:54:13.729Z,17.57
2023-01-01T17:56:43.793Z,20.63
2023-01-01T17:59:12.489Z,20.03
2023-01-01T18:01:42.142Z,15.50
2023-01-01T18:04:11.389Z,19.47
2023-01-01T18:06:43.114Z,17.93
2023-01-01T18:09:15.092Z,18.17
2023-01-01T18:11:45.376Z,16.70
2023-01-01T18:14:17.320Z,17.03
2023-01-01T18:16:47.032Z,16.37
2023-01-01T18:19:15.754Z,19.07
2023-01-01T18:21:44.431Z,15.80
2023-01-01T18:24:15.475Z,17.20
2023-01-01T18:26:45.301Z,19.23
2023-01-01T18:29:13.907Z,17.30
2023-01-01T18:31:42.786Z,20.30
2023-01-01T18:34:12.257Z,19.33
2023-01-01T18:36:40.894Z,20.97
2023-01-01T18:39:16.523Z,29.77
2023-01-01T18:42:31.001Z,33.47
2023-01-01T18:45:16.186Z,23.50
2023-01-01T18:47:46.361Z,21.37
2023-01-01T18:50:26.583Z,23.67
2023-01-01T18:53:02.011Z,21.60
2023-01-01T18:55:32.358Z,25.97
2023-01-01T18:58:15.298Z,21.83
2023-01-01T19:00:44.147Z,23.57
2023-01-01T19:03:19.047Z,22.90
2023-01-01T19:05:48.607Z,23.10
2023-01-01T19:08:22.355Z,20.33
2023-01-01T19:10:53.866Z,22.00
2023-01-01T19:13:25.574Z,24.00
2023-01-01T19:15:58.628Z,21.67
2023-01-01T19:18:31.465Z,20.27
2023-01-01T19:21:14.518Z,21.33
2023-01-01T19:23:50.216Z,22.00
2023-01-01T19:26:26.759Z,19.23
2023-01-01T19:28:58.113Z,16.80
2023-01-01T19:31:26.808Z,16.03
2023-01-01T19:33:55.437Z,18.50
2023-01-01T19:36:24.043Z,16.07
2023-01-01T19:38:52.606Z,17.97
2023-01-01T19:41:20.996Z,18.07
2023-01-01T19:43:49.686Z,14.17
2023-01-01T19:46:19.823Z,18.63
2023-01-01T19:48:49.164Z,15.43
2023-01-01T19:51:17.758Z,13.90
2023-01-01T19:53:46.408Z,16.07
2023-01-01T19:56:16.069Z,17.50
2023-01-01T19:58:45.431Z,15.87
2023-01-01T20:01:15.148Z,18.23
2023-01-01T20:04:00.493Z,14.80
2023-01-01T20:06:30.491Z,15.83
2023-01-01T20:08:58.715Z,14.80
2023-01-01T20:11:29.665Z,17.60
2023-01-01T20:13:58.429Z,14.50
2023-01-01T20:16:27.074Z,16.33
2023-01-01T20:18:56.746Z,17.20
2023-01-01T20:21:42.692Z,19.73
2023-01-01T20:24:12.100Z,15.60
2023-01-01T20:26:40.787Z,16.97
2023-01-01T20:29:21.191Z,13.70
2023-01-01T20:31:52.212Z,15.40
2023-01-01T20:34:23.432Z,15.60
2023-01-01T20:37:10.271Z,15.03
2023-01-01T20:39:39.852Z,14.67
2023-01-01T20:42:08.573Z,13.23
2023-01-01T20:44:37.306Z,14.90
2023-01-01T20:47:05.960Z,16.43
2023-01-01T20:49:36.500Z,14.63
2023-01-01T20:52:05.420Z,14.27
2023-01-01T20:54:34.018Z,17.00
2023-01-01T20:57:02.647Z,15.87
2023-01-01T20:59:36.483Z,14.30
2023-01-01T21:02:06.632Z,13.67
2023-01-01T21:04:38.806Z,14.27
2023-01-01T21:07:10.084Z,14.90
2023-01-01T21:09:38.534Z,13.50
2023-01-01T21:12:08.018Z,21.90
2023-01-01T21:14:37.009Z,16.93
2023-01-01T21:17:22.098Z,22.73
2023-01-01T21:19:54.813Z,26.67
2023-01-01T21:22:23.462Z,24.97
2023-01-01T21:24:54.753Z,26.90
2023-01-01T21:27:32.507Z,23.53
2023-01-01T21:30:01.908Z,27.10
2023-01-01T21:32:38.328Z,20.70
2023-01-01T21:35:17.508Z,17.30
2023-01-01T21:37:50.021Z,15.03
2023-01-01T21:40:39.715Z,16.47
2023-01-01T21:43:30.543Z,17.23
2023-01-01T21:46:16.315Z,18.87
2023-01-01T21:48:55.595Z,19.47
2023-01-01T21:51:28.340Z,17.87
2023-01-01T21:54:19.370Z,20.93
2023-01-01T21:56:55.809Z,18.07
2023-01-01T21:59:35.835Z,17.30
2023-01-01T22:02:31.288Z,18.43
2023-01-01T22:05:03.198Z,18.73
2023-01-01T22:10:33.775Z,16.83
2023-01-01T22:13:02.756Z,16.37
2023-01-01T22:15:41.298Z,15.53
2023-01-01T22:18:22.911Z,15.00
2023-01-01T22:20:51.644Z,15.03
2023-01-01T22:23:40.691Z,17.17
2023-01-01T22:26:27.649Z,19.17
2023-01-01T22:29:02.829Z,17.53
2023-01-01T22:31:36.444Z,19.13
2023-01-01T22:34:15.099Z,21.37
2023-01-01T22:36:43.681Z,16.40
2023-01-01T22:39:17.773Z,20.07
2023-01-01T22:41:50.187Z,20.20
2023-01-01T22:44:18.555Z,19.57
2023-01-01T22:46:47.191Z,18.43
2023-01-01T22:49:21.017Z,22.73
2023-01-01T22:51:54.568Z,19.17
2023-01-01T22:54:24.291Z,21.03
2023-01-01T22:56:52.952Z,21.70
2023-01-01T22:59:21.544Z,18.73
2023-01-01T23:01:50.307Z,19.77
2023-01-01T23:04:19.094Z,20.30
2023-01-01T23:06:47.923Z,18.30
2023-01-01T23:09:16.545Z,17.97
2023-01-01T23:11:46.677Z,20.03
2023-01-01T23:14:37.029Z,20.50
2023-01-01T23:17:07.189Z,20.63
2023-01-01T23:19:35.915Z,19.57
2023-01-01T23:22:05.149Z,15.87
2023-01-01T23:24:34.405Z,17.83
2023-01-01T23:27:04.977Z,18.37
2023-01-01T23:29:34.718Z,18.13
2023-01-01T23:32:04.260Z,16.80
2023-01-01T23:34:32.960Z,15.83
2023-01-01T23:37:01.610Z,17.03
2023-01-01T23:39:29.953Z,17.63
2023-01-01T23:41:58.771Z,17.47
2023-01-01T23:44:28.540Z,16.23
2023-01-01T23:47:00.800Z,16.60
2023-01-01T23:49:30.974Z,17.77
2023-01-01T23:52:00.407Z,16.93
2023-01-01T23:54:29.088Z,13.63
2023-01-01T23:56:57.685Z,15.77
2023-01-01T23:59:26.392Z,16.93
